Time;durP1;ratioP1;P1;durP2;ratioP2;P2;SDS_P1;SDS_P2;PMS_P1;PMS_P2;Temp;Humidity;BMP_temperature;BMP_pressure;BME280_temperature;BME280_humidity;BME280_pressure;Samples;Min_cycle;Max_cycle;Signal;HPM_P1;HPM_P2
2022/06/26 00:01:20;;;;;;;7.07;4.35;;;;;;;;;;5074364;28;20233;-13
2022/06/26 00:03:47;;;;;;;7.72;4.07;;;;;;;;;;5074654;28;20624;-13
2022/06/26 00:06:15;;;;;;;5.80;4.07;;;;;;;;;;5078909;28;20284;-13
2022/06/26 00:08:47;;;;;;;5.95;4.40;;;;;;;;;;5072689;28;20245;-13
2022/06/26 00:11:16;;;;;;;7.93;4.43;;;;;;;;;;5076993;28;20235;-13
2022/06/26 00:13:44;;;;;;;4.85;4.32;;;;;;;;;;5075220;28;20235;-13
2022/06/26 00:16:11;;;;;;;4.80;4.18;;;;;;;;;;5084043;28;20252;-13
2022/06/26 00:18:40;;;;;;;5.20;3.40;;;;;;;;;;5069700;28;20237;-13
2022/06/26 00:21:08;;;;;;;10.15;4.53;;;;;;;;;;5069383;28;20233;-14
2022/06/26 00:23:35;;;;;;;4.38;3.78;;;;;;;;;;5072796;28;20225;-12
2022/06/26 00:26:03;;;;;;;5.68;3.75;;;;;;;;;;5071020;28;20701;-13
2022/06/26 00:28:31;;;;;;;4.40;3.60;;;;;;;;;;5070879;28;21094;-14
2022/06/26 00:31:00;;;;;;;3.97;3.55;;;;;;;;;;5070920;28;20236;-13
2022/06/26 00:33:28;;;;;;;4.45;3.13;;;;;;;;;;5070017;28;20963;-14
2022/06/26 00:35:55;;;;;;;4.30;3.63;;;;;;;;;;5070867;28;20233;-13
2022/06/26 00:38:22;;;;;;;4.40;3.53;;;;;;;;;;5071006;28;20229;-13
2022/06/26 00:40:50;;;;;;;4.35;3.63;;;;;;;;;;5070808;28;20652;-13
2022/06/26 00:43:17;;;;;;;5.10;3.92;;;;;;;;;;5070416;28;21067;-13
2022/06/26 00:45:46;;;;;;;4.63;3.70;;;;;;;;;;5070857;28;20226;-13
2022/06/26 00:48:13;;;;;;;3.92;3.50;;;;;;;;;;5070064;28;20237;-14
2022/06/26 00:50:41;;;;;;;5.35;3.50;;;;;;;;;;5064910;28;20612;-13
2022/06/26 00:53:08;;;;;;;6.10;3.72;;;;;;;;;;5070466;28;20819;-14
2022/06/26 00:55:35;;;;;;;4.90;3.60;;;;;;;;;;5070348;28;20240;-13
2022/06/26 00:58:03;;;;;;;6.03;3.80;;;;;;;;;;5069916;28;20225;-13
2022/06/26 01:00:30;;;;;;;4.22;3.80;;;;;;;;;;5070342;28;20225;-13
2022/06/26 01:02:59;;;;;;;4.57;3.13;;;;;;;;;;5070717;28;20241;-13
2022/06/26 01:05:26;;;;;;;4.47;3.70;;;;;;;;;;5069899;28;20312;-13
2022/06/26 01:07:54;;;;;;;4.28;3.40;;;;;;;;;;5070751;28;20239;-12
2022/06/26 01:10:21;;;;;;;3.92;3.53;;;;;;;;;;5070730;28;20229;-13
2022/06/26 01:12:49;;;;;;;5.53;3.80;;;;;;;;;;5070076;28;20241;-14
2022/06/26 01:15:16;;;;;;;5.75;3.65;;;;;;;;;;5069755;28;21103;-13
2022/06/26 01:17:44;;;;;;;5.15;4.00;;;;;;;;;;5070589;28;20252;-14
2022/06/26 01:20:13;;;;;;;4.63;4.13;;;;;;;;;;5070006;28;20238;-13
2022/06/26 01:22:42;;;;;;;4.03;3.63;;;;;;;;;;5069801;28;20268;-13
2022/06/26 01:25:09;;;;;;;7.95;4.45;;;;;;;;;;5070843;28;20612;-13
2022/06/26 01:27:40;;;;;;;5.15;4.03;;;;;;;;;;5068517;28;20233;-13
2022/06/26 01:30:08;;;;;;;4.80;3.63;;;;;;;;;;5069475;28;20233;-13
2022/06/26 01:32:35;;;;;;;5.43;4.35;;;;;;;;;;5068610;28;20226;-12
2022/06/26 01:35:03;;;;;;;4.78;4.38;;;;;;;;;;5068356;28;20233;-13
2022/06/26 01:37:30;;;;;;;5.05;3.80;;;;;;;;;;5068679;28;20988;-13
2022/06/26 01:40:00;;;;;;;6.65;3.80;;;;;;;;;;5069362;28;20704;-13
2022/06/26 01:42:27;;;;;;;4.07;3.50;;;;;;;;;;5070438;28;20555;-14
2022/06/26 01:44:55;;;;;;;3.58;3.28;;;;;;;;;;5069985;28;20231;-14
2022/06/26 01:47:22;;;;;;;6.53;3.70;;;;;;;;;;5070433;28;20655;-13
2022/06/26 01:49:50;;;;;;;7.18;4.90;;;;;;;;;;5070111;28;20279;-12
2022/06/26 01:52:17;;;;;;;5.97;3.75;;;;;;;;;;5069731;28;20236;-13
2022/06/26 01:54:44;;;;;;;5.93;3.72;;;;;;;;;;5070118;28;20233;-13
2022/06/26 01:57:13;;;;;;;4.32;3.85;;;;;;;;;;5070398;28;20229;-13
2022/06/26 01:59:41;;;;;;;6.50;3.35;;;;;;;;;;5069483;28;20229;-13
2022/06/26 02:02:08;;;;;;;5.00;3.50;;;;;;;;;;5068500;28;20788;-14
2022/06/26 02:04:35;;;;;;;4.68;4.10;;;;;;;;;;5070144;28;20233;-13
2022/06/26 02:07:03;;;;;;;5.82;3.83;;;;;;;;;;5069716;28;20226;-13
2022/06/26 02:15:07;;;;;;;6.75;3.83;;;;;;;;;;5073119;28;20255;-13
2022/06/26 02:17:34;;;;;;;5.13;4.03;;;;;;;;;;5073250;28;20236;-13
2022/06/26 02:20:02;;;;;;;5.82;4.18;;;;;;;;;;5073098;28;20228;-13
2022/06/26 02:22:29;;;;;;;5.65;4.20;;;;;;;;;;5068080;22;20252;-13
2022/06/26 02:24:57;;;;;;;5.53;3.95;;;;;;;;;;5053099;28;20686;-13
2022/06/26 02:27:25;;;;;;;4.97;3.50;;;;;;;;;;5052471;28;20608;-13
2022/06/26 02:29:53;;;;;;;5.35;3.60;;;;;;;;;;5044816;28;20638;-13
2022/06/26 02:32:20;;;;;;;7.13;3.58;;;;;;;;;;5053479;28;20228;-13
2022/06/26 02:34:48;;;;;;;4.90;3.85;;;;;;;;;;5063212;28;20241;-13
2022/06/26 02:37:15;;;;;;;4.35;3.25;;;;;;;;;;5052889;28;20354;-13
2022/06/26 02:39:43;;;;;;;5.88;3.45;;;;;;;;;;5064727;28;20225;-13
2022/06/26 02:42:10;;;;;;;5.38;3.33;;;;;;;;;;5054763;28;20245;-13
2022/06/26 02:44:39;;;;;;;4.95;3.45;;;;;;;;;;5053226;28;20727;-13
2022/06/26 02:47:06;;;;;;;4.60;3.35;;;;;;;;;;5054146;28;20222;-13
2022/06/26 02:49:33;;;;;;;4.22;3.30;;;;;;;;;;5063606;28;20249;-13
2022/06/26 02:52:01;;;;;;;3.67;3.30;;;;;;;;;;5052461;28;20230;-13
2022/06/26 02:54:28;;;;;;;3.67;3.38;;;;;;;;;;5052449;28;20271;-13
2022/06/26 02:56:56;;;;;;;4.03;3.53;;;;;;;;;;5058717;28;20233;-13
2022/06/26 02:59:24;;;;;;;5.15;3.33;;;;;;;;;;5051602;28;20316;-13
2022/06/26 03:01:53;;;;;;;3.35;3.03;;;;;;;;;;5055555;28;20823;-13
2022/06/26 03:04:20;;;;;;;4.30;3.67;;;;;;;;;;5056010;28;20979;-13
2022/06/26 03:06:48;;;;;;;5.18;3.33;;;;;;;;;;5063004;28;20822;-13
2022/06/26 03:09:15;;;;;;;5.70;3.40;;;;;;;;;;5051455;28;20674;-13
2022/06/26 03:11:42;;;;;;;4.85;3.33;;;;;;;;;;5052431;28;20369;-13
2022/06/26 03:14:10;;;;;;;3.78;3.13;;;;;;;;;;5052472;28;20846;-13
2022/06/26 03:16:37;;;;;;;3.88;3.50;;;;;;;;;;5051395;28;20232;-13
2022/06/26 03:19:06;;;;;;;3.78;3.38;;;;;;;;;;5051357;28;20237;-13
2022/06/26 03:21:33;;;;;;;3.30;3.00;;;;;;;;;;5051783;28;20244;-13
2022/06/26 03:24:03;;;;;;;3.53;2.75;;;;;;;;;;5053652;28;20237;-13
2022/06/26 03:26:31;;;;;;;4.93;2.97;;;;;;;;;;5056010;28;20226;-13
2022/06/26 03:28:58;;;;;;;3.60;2.80;;;;;;;;;;5061571;28;20238;-13
2022/06/26 03:31:26;;;;;;;6.25;2.88;;;;;;;;;;5049993;28;20241;-13
2022/06/26 03:33:53;;;;;;;4.38;2.70;;;;;;;;;;5051869;28;20321;-13
2022/06/26 03:36:22;;;;;;;4.72;2.88;;;;;;;;;;5052157;28;20226;-13
2022/06/26 03:38:49;;;;;;;3.45;2.85;;;;;;;;;;5051471;28;20223;-13
2022/06/26 03:41:17;;;;;;;2.95;2.60;;;;;;;;;;5051324;28;20238;-13
2022/06/26 03:43:44;;;;;;;5.18;3.10;;;;;;;;;;5051601;28;20226;-13
2022/06/26 03:46:12;;;;;;;3.58;2.60;;;;;;;;;;5060954;28;20232;-13
2022/06/26 03:48:39;;;;;;;3.28;2.67;;;;;;;;;;5053986;28;20234;-13
2022/06/26 03:51:07;;;;;;;4.80;2.55;;;;;;;;;;5051291;28;20353;-13
2022/06/26 03:53:36;;;;;;;3.25;2.60;;;;;;;;;;5059328;28;20292;-13
2022/06/26 03:56:03;;;;;;;2.83;2.42;;;;;;;;;;5052015;28;20238;-13
2022/06/26 03:58:31;;;;;;;2.53;2.20;;;;;;;;;;5051399;28;20230;-13
2022/06/26 04:00:58;;;;;;;4.00;2.65;;;;;;;;;;5051816;28;20238;-13
2022/06/26 04:03:26;;;;;;;3.30;2.88;;;;;;;;;;5050618;28;20716;-13
2022/06/26 04:05:53;;;;;;;4.25;2.50;;;;;;;;;;5051470;28;20954;-13
2022/06/26 04:08:20;;;;;;;3.20;2.17;;;;;;;;;;5061373;28;20863;-13
2022/06/26 04:10:50;;;;;;;3.28;2.53;;;;;;;;;;5055012;28;20595;-13
2022/06/26 04:13:17;;;;;;;3.33;2.35;;;;;;;;;;5060750;28;20709;-13
2022/06/26 04:15:44;;;;;;;2.85;2.65;;;;;;;;;;5054555;28;20325;-13
2022/06/26 04:18:12;;;;;;;4.75;2.80;;;;;;;;;;5051302;28;20240;-13
2022/06/26 04:20:39;;;;;;;2.85;2.50;;;;;;;;;;5050774;28;20245;-13
2022/06/26 04:23:07;;;;;;;4.15;2.88;;;;;;;;;;5050907;28;20774;-13
2022/06/26 04:25:35;;;;;;;3.95;2.72;;;;;;;;;;5050300;28;20248;-13
2022/06/26 04:28:04;;;;;;;4.35;3.08;;;;;;;;;;5051293;28;20238;-13
2022/06/26 04:30:32;;;;;;;4.88;2.90;;;;;;;;;;5055116;28;20736;-13
2022/06/26 04:32:59;;;;;;;3.28;2.97;;;;;;;;;;5050548;28;20237;-13
2022/06/26 04:35:26;;;;;;;3.33;2.88;;;;;;;;;;5050236;28;20242;-13
2022/06/26 04:37:54;;;;;;;5.05;4.00;;;;;;;;;;5051259;28;20765;-13
2022/06/26 04:40:21;;;;;;;3.92;3.00;;;;;;;;;;5050707;28;21045;-13
2022/06/26 04:42:48;;;;;;;3.60;2.97;;;;;;;;;;5050756;28;20728;-13
2022/06/26 04:45:17;;;;;;;4.15;3.30;;;;;;;;;;5050333;28;20978;-13
2022/06/26 04:47:44;;;;;;;4.75;3.30;;;;;;;;;;5049383;28;20230;-13
2022/06/26 04:50:12;;;;;;;4.30;3.80;;;;;;;;;;5049888;28;20230;-13
2022/06/26 04:52:39;;;;;;;4.85;3.75;;;;;;;;;;5050685;28;20230;-13
2022/06/26 04:55:07;;;;;;;5.32;2.90;;;;;;;;;;5050371;28;20668;-13
2022/06/26 04:57:34;;;;;;;4.15;3.75;;;;;;;;;;5049559;28;20676;-13
2022/06/26 05:00:03;;;;;;;5.05;4.05;;;;;;;;;;5050532;28;20213;-13
2022/06/26 05:02:32;;;;;;;4.70;3.80;;;;;;;;;;5050955;28;20369;-13
2022/06/26 05:05:00;;;;;;;4.72;3.97;;;;;;;;;;5051718;28;20689;-13
2022/06/26 05:07:27;;;;;;;5.10;3.95;;;;;;;;;;5062041;28;20618;-13
2022/06/26 05:09:54;;;;;;;4.57;3.97;;;;;;;;;;5050017;28;20229;-13
2022/06/26 05:12:22;;;;;;;4.57;3.97;;;;;;;;;;5050213;28;20236;-13
2022/06/26 05:14:49;;;;;;;4.07;3.75;;;;;;;;;;5050274;28;20238;-13
2022/06/26 05:17:16;;;;;;;4.72;4.10;;;;;;;;;;5063574;28;20261;-13
2022/06/26 05:19:45;;;;;;;4.00;3.60;;;;;;;;;;5049818;28;20229;-13
2022/06/26 05:22:12;;;;;;;5.68;4.10;;;;;;;;;;5050197;28;21087;-13
2022/06/26 05:24:40;;;;;;;4.45;3.80;;;;;;;;;;5050257;28;21007;-13
2022/06/26 05:27:07;;;;;;;8.50;3.75;;;;;;;;;;5050263;28;20258;-13
2022/06/26 05:29:42;;;;;;;5.70;4.45;;;;;;;;;;5049913;28;20236;-13
2022/06/26 05:32:09;;;;;;;6.88;4.95;;;;;;;;;;5049794;28;20238;-13
2022/06/26 05:34:37;;;;;;;7.78;4.50;;;;;;;;;;5050417;28;20238;-13
2022/06/26 05:37:06;;;;;;;5.15;4.43;;;;;;;;;;5049840;28;20230;-13
2022/06/26 05:39:33;;;;;;;5.13;4.63;;;;;;;;;;5036490;28;20230;-13
2022/06/26 05:42:00;;;;;;;4.70;4.30;;;;;;;;;;5056852;28;20240;-13
2022/06/26 05:44:29;;;;;;;4.78;4.35;;;;;;;;;;5051436;28;20316;-13
2022/06/26 05:46:56;;;;;;;6.07;4.88;;;;;;;;;;5058995;28;20226;-12
2022/06/26 05:49:24;;;;;;;6.18;4.85;;;;;;;;;;5053573;28;20384;-13
2022/06/26 05:51:51;;;;;;;5.63;4.85;;;;;;;;;;5053411;28;20234;-12
2022/06/26 05:54:20;;;;;;;8.40;4.93;;;;;;;;;;5052743;28;20238;-13
2022/06/26 05:56:47;;;;;;;6.20;5.25;;;;;;;;;;5053371;28;20230;-13
2022/06/26 05:59:15;;;;;;;7.05;5.18;;;;;;;;;;5053047;28;20749;-13
2022/06/26 06:01:42;;;;;;;6.20;4.63;;;;;;;;;;5061314;28;20230;-13
2022/06/26 06:04:10;;;;;;;5.95;4.70;;;;;;;;;;5052715;28;21008;-13
2022/06/26 06:06:38;;;;;;;5.25;4.45;;;;;;;;;;5052973;28;21102;-13
2022/06/26 06:09:05;;;;;;;5.85;5.03;;;;;;;;;;5056113;28;20990;-12
2022/06/26 06:11:34;;;;;;;5.75;4.40;;;;;;;;;;5038608;28;20944;-13
2022/06/26 06:14:01;;;;;;;6.15;5.00;;;;;;;;;;5041436;28;20234;-13
2022/06/26 06:16:29;;;;;;;6.10;5.05;;;;;;;;;;5047216;28;20728;-12
2022/06/26 06:18:56;;;;;;;6.30;5.53;;;;;;;;;;5038552;28;20223;-12
2022/06/26 06:21:23;;;;;;;8.05;5.25;;;;;;;;;;5047471;28;20301;-13
2022/06/26 06:23:51;;;;;;;6.82;5.60;;;;;;;;;;5042215;28;20690;-12
2022/06/26 06:26:18;;;;;;;6.22;5.28;;;;;;;;;;5042447;28;20961;-13
2022/06/26 06:28:47;;;;;;;6.70;5.18;;;;;;;;;;5047425;28;20234;-13
2022/06/26 06:31:14;;;;;;;5.90;5.30;;;;;;;;;;5050013;28;20234;-13
2022/06/26 06:33:42;;;;;;;6.82;4.88;;;;;;;;;;5057508;28;20234;-13
2022/06/26 06:36:09;;;;;;;6.45;4.93;;;;;;;;;;5056362;28;20226;-13
2022/06/26 06:38:36;;;;;;;6.05;5.10;;;;;;;;;;5055007;28;20236;-13
2022/06/26 06:41:04;;;;;;;6.28;5.50;;;;;;;;;;5049430;28;20238;-12
2022/06/26 06:43:31;;;;;;;5.00;4.43;;;;;;;;;;5047288;28;20563;-13
2022/06/26 06:46:00;;;;;;;9.20;5.22;;;;;;;;;;5056631;28;20286;-12
2022/06/26 06:48:28;;;;;;;7.00;5.10;;;;;;;;;;5061495;28;20241;-13
2022/06/26 06:50:55;;;;;;;6.10;5.10;;;;;;;;;;5062155;28;20233;-13
2022/06/26 06:53:22;;;;;;;8.75;5.60;;;;;;;;;;5057833;28;20307;-12
2022/06/26 06:55:50;;;;;;;9.23;5.65;;;;;;;;;;5054172;28;20237;-12
2022/06/26 06:58:17;;;;;;;7.43;5.10;;;;;;;;;;5053981;28;20229;-13
2022/06/26 07:00:44;;;;;;;8.48;4.80;;;;;;;;;;5055301;28;20238;-12
2022/06/26 07:03:13;;;;;;;8.13;4.97;;;;;;;;;;5057809;28;20237;-12
2022/06/26 07:05:40;;;;;;;5.32;4.82;;;;;;;;;;5058670;28;20230;-13
2022/06/26 07:08:08;;;;;;;5.72;5.15;;;;;;;;;;5059261;28;20237;-13
2022/06/26 07:10:35;;;;;;;5.78;4.85;;;;;;;;;;5054811;28;20230;-13
2022/06/26 07:13:03;;;;;;;7.53;4.90;;;;;;;;;;5052740;28;20241;-12
2022/06/26 07:15:30;;;;;;;7.32;5.10;;;;;;;;;;5049580;28;20226;-12
2022/06/26 07:17:57;;;;;;;5.85;5.30;;;;;;;;;;5052105;28;20233;-12
2022/06/26 07:20:26;;;;;;;7.10;5.28;;;;;;;;;;5053736;28;20244;-12
2022/06/26 07:22:54;;;;;;;5.70;4.78;;;;;;;;;;5054477;28;21416;-13
2022/06/26 07:25:22;;;;;;;5.85;4.57;;;;;;;;;;5052270;28;20230;-12
2022/06/26 07:27:50;;;;;;;5.72;4.15;;;;;;;;;;5049702;28;20736;-12
2022/06/26 07:30:17;;;;;;;5.63;4.22;;;;;;;;;;5054153;28;20234;-13
2022/06/26 07:32:45;;;;;;;4.72;4.10;;;;;;;;;;5050305;28;20242;-12
2022/06/26 07:35:12;;;;;;;5.65;4.07;;;;;;;;;;5051058;28;20884;-12
2022/06/26 07:37:41;;;;;;;5.15;4.25;;;;;;;;;;5052748;28;20233;-12
2022/06/26 07:40:09;;;;;;;7.63;4.30;;;;;;;;;;5053438;28;20245;-12
2022/06/26 07:42:36;;;;;;;5.88;4.25;;;;;;;;;;5054780;28;20902;-13
2022/06/26 07:45:04;;;;;;;4.97;3.90;;;;;;;;;;5051612;28;20237;-13
2022/06/26 07:47:31;;;;;;;6.35;3.90;;;;;;;;;;5049510;28;20720;-12
2022/06/26 07:49:59;;;;;;;7.78;3.90;;;;;;;;;;5050236;28;20283;-13
2022/06/26 07:52:27;;;;;;;4.78;3.80;;;;;;;;;;5050503;28;20793;-12
2022/06/26 07:54:56;;;;;;;5.47;3.78;;;;;;;;;;5051348;28;21090;-13
2022/06/26 07:57:23;;;;;;;7.90;3.83;;;;;;;;;;5053770;28;20233;-12
2022/06/26 07:59:50;;;;;;;7.30;3.90;;;;;;;;;;5057176;28;20241;-12
2022/06/26 08:02:18;;;;;;;11.80;4.25;;;;;;;;;;5046796;28;20231;-12
2022/06/26 08:04:45;;;;;;;11.82;4.10;;;;;;;;;;5047955;28;20230;-12
2022/06/26 08:07:13;;;;;;;9.15;3.80;;;;;;;;;;5050654;28;20243;-12
2022/06/26 08:09:40;;;;;;;4.20;3.25;;;;;;;;;;5051111;28;20234;-13
2022/06/26 08:12:09;;;;;;;8.30;4.15;;;;;;;;;;5051821;28;20233;-13
2022/06/26 08:14:36;;;;;;;6.05;3.40;;;;;;;;;;5051093;28;20237;-12
2022/06/26 08:17:04;;;;;;;7.00;2.97;;;;;;;;;;5051460;28;20230;-13
2022/06/26 08:19:31;;;;;;;4.28;3.22;;;;;;;;;;5051126;28;20700;-12
2022/06/26 08:22:01;;;;;;;5.63;3.40;;;;;;;;;;5061657;28;20296;-13
2022/06/26 08:24:29;;;;;;;5.82;3.28;;;;;;;;;;5039957;28;20531;-13
2022/06/26 08:26:56;;;;;;;5.03;2.80;;;;;;;;;;5050640;28;20234;-12
2022/06/26 08:29:25;;;;;;;9.82;3.13;;;;;;;;;;5051185;28;20721;-12
2022/06/26 08:31:52;;;;;;;5.88;3.10;;;;;;;;;;5056788;28;20238;-13
2022/06/26 08:34:20;;;;;;;6.13;3.10;;;;;;;;;;5052719;28;20242;-13
2022/06/26 08:36:47;;;;;;;9.52;2.97;;;;;;;;;;5055061;28;20276;-13
2022/06/26 08:39:15;;;;;;;7.20;2.70;;;;;;;;;;5053001;28;20226;-12
2022/06/26 08:41:42;;;;;;;8.02;2.58;;;;;;;;;;5051404;28;20229;-13
2022/06/26 08:44:10;;;;;;;7.10;2.90;;;;;;;;;;5050588;28;20226;-12
2022/06/26 08:46:39;;;;;;;10.95;2.97;;;;;;;;;;5050798;28;20230;-12
2022/06/26 08:49:09;;;;;;;8.45;2.70;;;;;;;;;;5050133;28;20229;-12
2022/06/26 08:51:36;;;;;;;6.68;2.58;;;;;;;;;;5050653;28;20230;-12
2022/06/26 08:54:05;;;;;;;10.05;2.67;;;;;;;;;;5050163;28;21058;-12
2022/06/26 08:56:32;;;;;;;7.93;2.60;;;;;;;;;;5053337;28;20234;-12
2022/06/26 08:59:00;;;;;;;11.10;3.17;;;;;;;;;;5054831;28;20230;-12
2022/06/26 09:01:27;;;;;;;7.95;2.50;;;;;;;;;;5047673;28;20242;-13
2022/06/26 09:03:56;;;;;;;3.53;2.30;;;;;;;;;;5048138;28;20232;-13
2022/06/26 09:06:23;;;;;;;9.23;2.70;;;;;;;;;;5049980;28;20260;-12
2022/06/26 09:08:51;;;;;;;6.82;2.03;;;;;;;;;;5052549;28;20236;-13
2022/06/26 09:11:18;;;;;;;7.38;1.90;;;;;;;;;;5051266;28;20230;-15
2022/06/26 09:13:46;;;;;;;5.22;2.10;;;;;;;;;;5044750;28;20268;-13
2022/06/26 09:16:14;;;;;;;4.95;2.10;;;;;;;;;;5047996;28;20268;-13
2022/06/26 09:18:42;;;;;;;4.22;1.90;;;;;;;;;;5047637;28;21004;-13
2022/06/26 09:21:11;;;;;;;4.85;1.90;;;;;;;;;;5049755;28;20256;-13
2022/06/26 09:23:38;;;;;;;3.75;2.10;;;;;;;;;;5053158;28;20244;-13
2022/06/26 09:26:06;;;;;;;4.50;1.98;;;;;;;;;;5052160;28;20234;-12
2022/06/26 09:28:33;;;;;;;3.40;1.98;;;;;;;;;;5053409;28;20236;-13
2022/06/26 09:31:01;;;;;;;4.50;1.80;;;;;;;;;;5058846;28;20235;-13
2022/06/26 09:33:29;;;;;;;3.45;2.20;;;;;;;;;;5052118;28;20333;-13
2022/06/26 09:35:56;;;;;;;4.72;1.67;;;;;;;;;;5053023;28;20244;-13
2022/06/26 09:38:25;;;;;;;5.05;2.20;;;;;;;;;;5053015;28;20229;-13
2022/06/26 09:40:53;;;;;;;4.32;1.95;;;;;;;;;;5053409;28;20233;-12
2022/06/26 09:43:28;;;;;;;4.32;1.88;;;;;;;;;;5052623;28;20267;-13
2022/06/26 09:45:55;;;;;;;4.13;1.77;;;;;;;;;;5060756;28;20225;-12
2022/06/26 09:48:23;;;;;;;4.47;2.10;;;;;;;;;;5055216;28;20313;-12
2022/06/26 09:50:51;;;;;;;4.53;2.10;;;;;;;;;;5052760;28;20956;-13
2022/06/26 09:53:19;;;;;;;3.83;2.00;;;;;;;;;;5053441;28;20238;-13
2022/06/26 09:55:47;;;;;;;5.35;1.90;;;;;;;;;;5052973;28;20226;-12
2022/06/26 09:58:15;;;;;;;3.08;1.58;;;;;;;;;;5052884;28;20226;-13
2022/06/26 10:00:42;;;;;;;3.67;1.77;;;;;;;;;;5058382;28;20233;-12
2022/06/26 10:06:27;;;;;;;2.47;1.63;;;;;;;;;;5052577;28;20226;-13
2022/06/26 10:08:55;;;;;;;2.70;1.70;;;;;;;;;;5053536;28;20240;-13
2022/06/26 10:11:28;;;;;;;1.70;1.60;;;;;;;;;;5053117;28;20233;-13
2022/06/26 10:13:56;;;;;;;3.00;1.67;;;;;;;;;;5052800;28;20242;-12
2022/06/26 10:16:27;;;;;;;4.43;1.88;;;;;;;;;;5053009;28;20234;-13
2022/06/26 10:19:05;;;;;;;3.45;1.60;;;;;;;;;;5052832;28;20241;-12
2022/06/26 10:21:35;;;;;;;2.75;1.70;;;;;;;;;;5052017;28;20241;-13
2022/06/26 10:24:02;;;;;;;2.35;1.60;;;;;;;;;;5053829;28;20241;-13
2022/06/26 10:26:31;;;;;;;4.80;1.80;;;;;;;;;;5050811;28;20260;-13
2022/06/26 10:28:59;;;;;;;5.53;2.00;;;;;;;;;;5047040;28;20230;-13
2022/06/26 10:31:26;;;;;;;4.55;1.95;;;;;;;;;;5054078;28;20244;-13
2022/06/26 10:34:00;;;;;;;4.95;1.92;;;;;;;;;;5048602;28;20244;-13
2022/06/26 10:36:27;;;;;;;4.22;1.65;;;;;;;;;;5043305;28;20226;-13
2022/06/26 10:39:03;;;;;;;5.07;1.92;;;;;;;;;;5048062;28;20238;-13
2022/06/26 10:44:29;;;;;;;5.35;1.77;;;;;;;;;;5049341;28;20233;-13
2022/06/26 10:46:58;;;;;;;3.45;1.80;;;;;;;;;;5049850;28;20245;-14
2022/06/26 10:49:25;;;;;;;4.75;2.00;;;;;;;;;;5052780;28;20234;-13
2022/06/26 10:51:52;;;;;;;4.10;1.88;;;;;;;;;;5049882;28;20238;-13
2022/06/26 10:54:20;;;;;;;3.13;1.70;;;;;;;;;;5049944;28;20242;-13
2022/06/26 10:56:49;;;;;;;4.90;1.85;;;;;;;;;;5049935;28;20261;-13
2022/06/26 10:59:17;;;;;;;6.43;1.70;;;;;;;;;;5042249;28;20238;-13
2022/06/26 11:01:44;;;;;;;3.83;1.55;;;;;;;;;;5053961;28;20241;-13
2022/06/26 11:04:12;;;;;;;4.88;1.55;;;;;;;;;;5051564;28;20701;-12
2022/06/26 11:06:42;;;;;;;2.60;1.40;;;;;;;;;;5047424;28;20986;-13
2022/06/26 11:09:10;;;;;;;6.88;1.67;;;;;;;;;;5050353;28;20238;-13
2022/06/26 11:11:37;;;;;;;5.55;2.20;;;;;;;;;;5053004;28;20260;-13
2022/06/26 11:14:07;;;;;;;6.85;1.65;;;;;;;;;;5047475;28;20249;-13
2022/06/26 11:16:35;;;;;;;7.00;1.90;;;;;;;;;;5049149;28;20226;-13
2022/06/26 11:19:04;;;;;;;10.55;1.88;;;;;;;;;;5046819;28;20519;-13
2022/06/26 11:21:31;;;;;;;3.90;2.13;;;;;;;;;;5049476;28;20246;-13
2022/06/26 11:23:59;;;;;;;4.82;1.83;;;;;;;;;;5047768;28;20273;-13
2022/06/26 11:26:26;;;;;;;4.22;1.90;;;;;;;;;;5049563;28;20244;-12
2022/06/26 11:28:54;;;;;;;3.85;1.90;;;;;;;;;;5047884;28;20238;-13
2022/06/26 11:31:23;;;;;;;3.78;1.70;;;;;;;;;;5048096;28;20234;-12
2022/06/26 11:33:51;;;;;;;3.67;2.13;;;;;;;;;;5048613;28;20234;-13
2022/06/26 11:36:18;;;;;;;4.70;2.10;;;;;;;;;;5053214;28;20242;-13
2022/06/26 11:38:49;;;;;;;4.22;1.65;;;;;;;;;;5048700;28;20238;-13
2022/06/26 11:41:17;;;;;;;4.55;1.67;;;;;;;;;;5048136;28;20804;-12
2022/06/26 11:43:45;;;;;;;6.20;2.15;;;;;;;;;;5050098;28;20234;-13
2022/06/26 11:46:12;;;;;;;3.25;1.92;;;;;;;;;;5048530;28;20867;-13
2022/06/26 11:48:41;;;;;;;3.92;2.00;;;;;;;;;;5048314;28;20238;-13
2022/06/26 11:51:08;;;;;;;5.78;1.80;;;;;;;;;;5046685;28;20226;-13
2022/06/26 11:53:36;;;;;;;5.82;2.20;;;;;;;;;;5051916;28;20296;-13
2022/06/26 11:56:04;;;;;;;8.35;2.10;;;;;;;;;;5047269;28;20238;-13
2022/06/26 11:58:31;;;;;;;4.32;1.90;;;;;;;;;;5049470;28;20245;-12
2022/06/26 12:01:02;;;;;;;8.82;2.88;;;;;;;;;;5051895;28;20238;-13
2022/06/26 12:03:30;;;;;;;4.88;1.90;;;;;;;;;;5050521;28;20325;-12
2022/06/26 12:05:59;;;;;;;5.28;2.33;;;;;;;;;;5047680;28;21079;-12
2022/06/26 12:08:26;;;;;;;4.00;2.42;;;;;;;;;;5048150;28;20242;-12
2022/06/26 12:10:53;;;;;;;3.95;2.10;;;;;;;;;;5051021;28;21472;-13
2022/06/26 12:13:22;;;;;;;7.65;2.45;;;;;;;;;;5050018;28;20341;-13
2022/06/26 12:15:49;;;;;;;4.97;2.28;;;;;;;;;;5047562;28;20237;-13
2022/06/26 12:18:16;;;;;;;8.38;2.30;;;;;;;;;;5047643;28;20226;-13
2022/06/26 12:20:44;;;;;;;4.95;2.03;;;;;;;;;;5048079;28;20717;-13
2022/06/26 12:23:12;;;;;;;8.90;2.30;;;;;;;;;;5027655;28;20233;-13
2022/06/26 12:25:42;;;;;;;5.75;2.17;;;;;;;;;;5027373;28;20694;-13
2022/06/26 12:28:09;;;;;;;10.73;2.33;;;;;;;;;;5026786;28;20271;-13
2022/06/26 12:30:39;;;;;;;7.53;2.65;;;;;;;;;;5029053;28;20237;-13
2022/06/26 12:33:07;;;;;;;9.32;2.67;;;;;;;;;;5029811;28;20234;-13
2022/06/26 12:35:34;;;;;;;8.23;2.72;;;;;;;;;;5018203;28;20262;-13
2022/06/26 12:38:03;;;;;;;10.93;2.70;;;;;;;;;;5021604;28;20324;-13
2022/06/26 12:40:34;;;;;;;11.25;3.05;;;;;;;;;;5024795;28;20301;-13
2022/06/26 12:43:02;;;;;;;8.75;2.97;;;;;;;;;;5029191;28;20231;-12
2022/06/26 12:45:30;;;;;;;6.82;3.00;;;;;;;;;;5028333;28;20243;-13
2022/06/26 12:47:57;;;;;;;9.95;3.20;;;;;;;;;;5026901;28;20956;-13
2022/06/26 12:50:25;;;;;;;10.50;3.08;;;;;;;;;;5026632;28;20237;-13
2022/06/26 12:52:52;;;;;;;9.82;2.95;;;;;;;;;;5028333;28;20240;-13
2022/06/26 12:55:20;;;;;;;9.05;3.17;;;;;;;;;;5030613;28;20239;-13
2022/06/26 12:57:48;;;;;;;12.50;2.85;;;;;;;;;;5026688;28;20239;-13
2022/06/26 13:00:16;;;;;;;5.90;2.90;;;;;;;;;;5034754;28;21027;-13
2022/06/26 13:02:43;;;;;;;11.23;2.58;;;;;;;;;;5029272;28;20245;-13
2022/06/26 13:05:12;;;;;;;8.82;3.25;;;;;;;;;;5027304;28;20238;-13
2022/06/26 13:07:39;;;;;;;4.97;2.65;;;;;;;;;;5032167;28;20262;-13
2022/06/26 13:10:07;;;;;;;3.92;2.63;;;;;;;;;;5026106;28;20294;-13
2022/06/26 13:12:35;;;;;;;4.82;2.88;;;;;;;;;;5031833;28;20246;-12
2022/06/26 13:15:04;;;;;;;3.50;2.30;;;;;;;;;;5027904;28;21121;-13
2022/06/26 13:17:31;;;;;;;5.00;2.70;;;;;;;;;;5026043;28;20245;-13
2022/06/26 13:19:59;;;;;;;4.32;2.47;;;;;;;;;;5028265;28;20235;-13
2022/06/26 13:22:27;;;;;;;5.43;2.30;;;;;;;;;;5042370;28;20280;-13
2022/06/26 13:24:55;;;;;;;4.75;2.70;;;;;;;;;;5047773;28;20283;-13
2022/06/26 13:27:22;;;;;;;7.85;2.75;;;;;;;;;;5049988;28;20240;-13
2022/06/26 13:29:49;;;;;;;9.55;2.47;;;;;;;;;;5051540;28;20233;-13
2022/06/26 13:32:24;;;;;;;5.03;2.30;;;;;;;;;;5048693;28;20245;-13
2022/06/26 13:34:52;;;;;;;6.13;2.67;;;;;;;;;;5050221;28;20244;-13
2022/06/26 13:37:19;;;;;;;6.05;2.85;;;;;;;;;;5047205;28;21112;-13
2022/06/26 13:39:46;;;;;;;5.82;2.65;;;;;;;;;;5048342;28;20233;-13
2022/06/26 13:42:14;;;;;;;7.25;2.95;;;;;;;;;;5042962;28;20226;-13
2022/06/26 13:44:41;;;;;;;5.05;2.58;;;;;;;;;;5044371;28;20241;-13
2022/06/26 13:47:09;;;;;;;3.85;2.22;;;;;;;;;;5044086;28;20241;-13
2022/06/26 13:49:40;;;;;;;5.72;3.08;;;;;;;;;;5047444;28;20230;-13
2022/06/26 13:52:07;;;;;;;3.08;2.13;;;;;;;;;;5047272;28;20234;-13
2022/06/26 13:54:35;;;;;;;6.38;2.85;;;;;;;;;;5046159;28;20239;-13
2022/06/26 13:57:02;;;;;;;5.40;2.20;;;;;;;;;;5047220;28;20248;-13
2022/06/26 13:59:30;;;;;;;8.60;2.40;;;;;;;;;;5049661;28;20650;-13
2022/06/26 14:01:57;;;;;;;3.78;2.03;;;;;;;;;;5051852;28;20788;-13
2022/06/26 14:04:25;;;;;;;4.72;2.30;;;;;;;;;;5047716;28;20311;-12
2022/06/26 14:06:54;;;;;;;2.88;2.17;;;;;;;;;;5047388;28;20289;-12
2022/06/26 14:09:21;;;;;;;4.35;1.98;;;;;;;;;;5055151;28;20237;-13
2022/06/26 14:11:48;;;;;;;8.63;2.15;;;;;;;;;;5055072;28;20243;-13
2022/06/26 14:14:16;;;;;;;2.83;1.83;;;;;;;;;;5054497;28;20277;-13
2022/06/26 14:16:43;;;;;;;5.88;2.20;;;;;;;;;;5054574;28;20238;-12
2022/06/26 14:19:10;;;;;;;9.50;2.72;;;;;;;;;;5051000;28;20233;-13
2022/06/26 14:21:38;;;;;;;5.82;2.30;;;;;;;;;;5049171;28;20242;-13
2022/06/26 14:26:51;;;;;;;7.50;2.00;;;;;;;;;;5045627;28;20234;-13
2022/06/26 14:29:19;;;;;;;5.63;2.10;;;;;;;;;;5048485;28;20230;-13
2022/06/26 14:31:46;;;;;;;6.95;2.17;;;;;;;;;;5051756;28;20230;-13
2022/06/26 14:34:33;;;;;;;5.10;2.13;;;;;;;;;;5045320;28;20234;-13
2022/06/26 14:37:01;;;;;;;4.85;2.65;;;;;;;;;;5049256;28;20246;-13
2022/06/26 14:39:30;;;;;;;5.32;2.05;;;;;;;;;;5048270;28;20234;-13
2022/06/26 14:41:57;;;;;;;4.40;1.95;;;;;;;;;;5046676;28;20234;-13
2022/06/26 14:44:25;;;;;;;5.45;1.80;;;;;;;;;;5049273;28;20237;-13
2022/06/26 14:46:52;;;;;;;4.15;1.83;;;;;;;;;;5050201;28;20234;-15
2022/06/26 14:49:20;;;;;;;2.78;1.63;;;;;;;;;;5047352;28;20238;-12
2022/06/26 14:51:49;;;;;;;3.85;1.73;;;;;;;;;;5050992;28;20725;-12
2022/06/26 14:54:16;;;;;;;2.63;1.73;;;;;;;;;;5048763;28;20230;-13
2022/06/26 14:56:45;;;;;;;4.70;1.83;;;;;;;;;;5049958;28;20244;-12
2022/06/26 14:59:12;;;;;;;3.35;1.95;;;;;;;;;;5048948;28;20281;-12
2022/06/26 15:01:40;;;;;;;3.10;2.03;;;;;;;;;;5051091;28;20242;-12